Time;durP1;ratioP1;P1;durP2;ratioP2;P2;SDS_P1;SDS_P2;PMS_P1;PMS_P2;Temp;Humidity;BMP_temperature;BMP_pressure;BME280_temperature;BME280_humidity;BME280_pressure;Samples;Min_cycle;Max_cycle;Signal;HPM_P1;HPM_P2
2022/11/05 00:10:29;;;;;;;4.07;3.50;;;21.00;64.50;;;;;;4976159;28;88665;-85
2022/11/05 00:18:26;;;;;;;5.88;3.85;;;20.90;64.70;;;;;;4976467;28;87538;-85
2022/11/05 00:20:51;;;;;;;5.40;3.85;;;20.90;64.60;;;;;;4976273;28;88177;-85
2022/11/05 00:26:04;;;;;;;6.10;3.53;;;20.90;64.80;;;;;;4976632;28;87374;-85
2022/11/05 00:28:31;;;;;;;4.20;3.58;;;20.90;64.90;;;;;;4976615;28;87402;-85
2022/11/05 00:31:04;;;;;;;5.43;3.92;;;20.90;65.00;;;;;;4976323;28;88239;-85
2022/11/05 00:33:31;;;;;;;3.90;3.50;;;20.80;64.90;;;;;;4975887;28;88335;-85
2022/11/05 00:35:56;;;;;;;5.80;3.92;;;20.80;64.70;;;;;;4968954;28;87955;-85
2022/11/05 00:38:22;;;;;;;3.95;3.40;;;20.80;64.70;;;;;;4991253;28;90721;-86
2022/11/05 00:40:48;;;;;;;4.00;3.47;;;20.80;64.90;;;;;;4978387;28;88581;-85
2022/11/05 00:45:58;;;;;;;4.00;3.25;;;20.80;64.90;;;;;;4978337;28;86916;-85
2022/11/05 00:51:08;;;;;;;3.85;3.47;;;20.80;64.70;;;;;;4972922;28;87188;-85
2022/11/05 00:53:36;;;;;;;4.65;3.58;;;20.80;64.80;;;;;;4978707;28;88224;-85
2022/11/05 00:56:02;;;;;;;4.78;3.17;;;20.70;64.70;;;;;;4977761;28;86869;-85
2022/11/05 00:58:29;;;;;;;5.28;3.33;;;20.70;64.80;;;;;;4977491;28;87471;-85
2022/11/05 01:00:56;;;;;;;3.55;3.03;;;20.70;64.60;;;;;;4977421;28;89139;-85
2022/11/05 01:03:31;;;;;;;4.38;3.63;;;20.70;64.80;;;;;;4978227;28;91416;-85
2022/11/05 01:06:04;;;;;;;3.88;3.47;;;20.70;64.60;;;;;;4977510;28;86906;-85
2022/11/05 01:08:30;;;;;;;5.18;3.60;;;20.70;64.70;;;;;;4978289;28;87163;-85
2022/11/05 01:10:57;;;;;;;4.90;3.55;;;20.70;64.70;;;;;;5012970;28;90437;-86
2022/11/05 01:13:28;;;;;;;3.95;3.40;;;20.70;64.90;;;;;;4981318;28;88304;-84
2022/11/05 01:15:56;;;;;;;3.60;3.17;;;20.60;64.80;;;;;;4981787;28;86826;-86
2022/11/05 01:18:23;;;;;;;4.03;3.03;;;20.70;64.80;;;;;;4981268;28;87287;-85
2022/11/05 01:20:49;;;;;;;4.55;3.47;;;20.70;64.70;;;;;;4982295;28;87796;-85
2022/11/05 01:23:15;;;;;;;5.35;3.60;;;20.70;64.60;;;;;;4981135;28;87797;-86
2022/11/05 01:25:44;;;;;;;4.57;3.45;;;20.60;64.50;;;;;;4981242;28;87895;-84
2022/11/05 01:28:10;;;;;;;4.68;3.45;;;20.60;64.60;;;;;;5012855;28;89133;-85
2022/11/05 01:30:36;;;;;;;3.83;3.40;;;20.60;64.60;;;;;;4980635;28;88671;-84
2022/11/05 01:33:02;;;;;;;3.72;3.28;;;20.60;64.70;;;;;;4981528;28;89838;-85
2022/11/05 01:35:28;;;;;;;3.55;3.25;;;20.60;64.50;;;;;;4980491;28;86906;-85
2022/11/05 01:37:54;;;;;;;4.10;3.20;;;20.60;64.60;;;;;;4980862;28;87081;-85
2022/11/05 01:40:22;;;;;;;4.10;3.40;;;20.60;64.50;;;;;;4980439;28;88164;-85
2022/11/05 01:42:48;;;;;;;3.65;3.35;;;20.60;64.70;;;;;;4981294;28;87754;-85
2022/11/05 01:45:23;;;;;;;3.85;3.45;;;20.60;64.70;;;;;;4980992;28;87286;-84
2022/11/05 01:48:01;;;;;;;3.78;3.25;;;20.60;65.40;;;;;;4981042;28;86916;-84
2022/11/05 01:50:40;;;;;;;3.70;3.03;;;20.60;64.70;;;;;;4980239;28;89924;-85
2022/11/05 01:53:17;;;;;;;3.92;3.45;;;20.50;64.60;;;;;;4980404;28;90667;-85
2022/11/05 01:55:50;;;;;;;4.07;3.20;;;20.50;64.70;;;;;;4980047;28;87225;-84
2022/11/05 01:58:21;;;;;;;3.35;3.05;;;20.50;64.50;;;;;;4976032;28;87535;-84
2022/11/05 02:00:47;;;;;;;4.07;3.13;;;20.50;64.60;;;;;;4980746;28;89789;-85
2022/11/05 02:03:14;;;;;;;3.97;3.58;;;20.50;64.70;;;;;;4981556;28;88038;-85
2022/11/05 02:05:40;;;;;;;4.55;3.30;;;20.50;64.70;;;;;;4980517;28;86773;-85
2022/11/05 02:08:12;;;;;;;5.30;3.20;;;20.50;64.50;;;;;;4980570;28;87359;-86
2022/11/05 02:10:39;;;;;;;3.38;3.08;;;20.50;64.60;;;;;;4978439;28;94642;-85
2022/11/05 02:13:04;;;;;;;3.72;3.40;;;20.50;64.50;;;;;;4980055;28;87433;-85
2022/11/05 02:15:48;;;;;;;4.28;3.50;;;20.50;64.80;;;;;;4979410;28;87861;-85
2022/11/05 02:18:40;;;;;;;3.58;3.28;;;20.50;64.80;;;;;;4980534;28;87435;-82
2022/11/05 02:21:47;;;;;;;3.30;3.00;;;20.40;64.90;;;;;;4980728;28;88626;-85
2022/11/05 02:24:55;;;;;;;3.72;3.33;;;20.40;64.70;;;;;;4918701;28;92441;-85
2022/11/05 02:27:44;;;;;;;5.18;3.25;;;20.50;64.60;;;;;;4918060;28;87251;-85
2022/11/05 02:30:30;;;;;;;3.20;2.90;;;20.50;64.60;;;;;;4920209;28;87073;-85
2022/11/05 02:33:34;;;;;;;3.22;2.92;;;20.40;64.70;;;;;;4919569;28;92951;-84
2022/11/05 02:36:24;;;;;;;3.83;3.25;;;20.40;64.70;;;;;;4842396;29;92182;-85
2022/11/05 02:39:12;;;;;;;3.20;2.90;;;20.40;64.80;;;;;;4843849;29;86823;-85
2022/11/05 02:41:58;;;;;;;4.97;3.30;;;20.40;64.90;;;;;;4842848;29;90514;-85
2022/11/05 02:44:51;;;;;;;3.53;3.22;;;20.40;65.00;;;;;;4842331;29;88500;-84
2022/11/05 02:47:37;;;;;;;3.83;3.00;;;20.40;64.80;;;;;;4842568;29;89176;-85
2022/11/05 02:50:16;;;;;;;3.47;3.15;;;20.40;64.80;;;;;;4842967;29;88933;-85
2022/11/05 02:52:58;;;;;;;4.67;3.30;;;20.40;64.70;;;;;;4843136;29;87528;-84
2022/11/05 02:55:28;;;;;;;3.30;3.00;;;20.30;64.80;;;;;;4843241;29;88393;-85
2022/11/05 02:57:54;;;;;;;4.38;3.33;;;20.30;64.70;;;;;;4843613;29;88330;-85
2022/11/05 03:00:39;;;;;;;3.53;3.10;;;20.30;64.70;;;;;;4849325;28;87773;-84
2022/11/05 03:03:12;;;;;;;3.95;3.30;;;20.30;64.60;;;;;;4919992;28;87090;-85
2022/11/05 03:06:05;;;;;;;3.60;3.30;;;20.30;64.40;;;;;;4918133;28;88175;-85
2022/11/05 03:08:54;;;;;;;3.75;2.90;;;20.30;64.50;;;;;;4918168;28;88053;-84
2022/11/05 03:11:25;;;;;;;3.45;3.15;;;20.30;64.40;;;;;;4920496;28;88280;-85
2022/11/05 03:13:58;;;;;;;4.30;3.03;;;20.30;64.50;;;;;;4979601;28;88794;-85
2022/11/05 03:16:52;;;;;;;3.70;3.08;;;20.30;64.60;;;;;;4979259;28;89603;-85
2022/11/05 03:19:29;;;;;;;3.25;2.95;;;20.30;64.50;;;;;;4979493;28;88469;-84
2022/11/05 03:22:03;;;;;;;3.83;3.30;;;20.30;64.40;;;;;;4979918;28;86901;-85
2022/11/05 03:24:33;;;;;;;3.40;3.10;;;20.30;64.20;;;;;;4976859;28;87201;-85
2022/11/05 03:27:09;;;;;;;3.00;2.70;;;20.30;64.30;;;;;;4980058;28;88002;-85
2022/11/05 03:29:47;;;;;;;3.50;2.80;;;20.30;64.30;;;;;;5011451;28;91551;-85
2022/11/05 03:32:16;;;;;;;4.30;3.40;;;20.20;64.40;;;;;;4974711;28;87062;-85
2022/11/05 03:34:50;;;;;;;2.90;2.50;;;20.20;64.20;;;;;;4979243;28;88409;-83
2022/11/05 03:37:18;;;;;;;2.88;2.55;;;20.20;64.60;;;;;;4978145;28;89917;-85
2022/11/05 03:39:51;;;;;;;3.25;2.95;;;20.30;64.70;;;;;;4979432;28;87729;-85
2022/11/05 03:42:22;;;;;;;2.75;2.55;;;20.20;64.40;;;;;;4979418;28;87143;-85
2022/11/05 03:44:52;;;;;;;3.10;2.80;;;20.20;64.50;;;;;;4979262;28;86947;-85
2022/11/05 03:47:22;;;;;;;2.78;2.58;;;20.20;64.40;;;;;;4977652;28;89946;-85
2022/11/05 03:49:53;;;;;;;3.75;3.03;;;20.20;64.40;;;;;;4978485;28;87820;-84
2022/11/05 03:52:24;;;;;;;3.35;3.03;;;20.20;64.50;;;;;;4978393;28;86920;-85
2022/11/05 03:54:50;;;;;;;2.95;2.70;;;20.20;64.50;;;;;;4979195;28;87029;-85
2022/11/05 03:57:27;;;;;;;3.22;2.63;;;20.20;64.40;;;;;;4978401;28;87983;-85
2022/11/05 03:59:55;;;;;;;3.45;2.58;;;20.20;64.60;;;;;;4978295;28;87897;-86
2022/11/05 04:02:27;;;;;;;3.17;2.63;;;20.20;64.70;;;;;;4978283;28;87776;-85
2022/11/05 04:04:53;;;;;;;3.28;2.97;;;20.20;64.50;;;;;;4978524;28;87519;-85
2022/11/05 04:17:05;;;;;;;3.08;2.70;;;20.20;64.20;;;;;;4978907;28;87276;-85
2022/11/05 04:18:18;;;;;;;3.17;2.80;;;20.10;64.40;;;;;;4978294;28;89452;-85
2022/11/05 04:26:12;;;;;;;3.65;3.13;;;20.10;64.40;;;;;;4978270;28;86960;-84
2022/11/05 04:31:22;;;;;;;2.95;2.65;;;20.10;64.40;;;;;;4978009;28;87918;-85
2022/11/05 04:33:48;;;;;;;2.75;2.55;;;20.10;64.40;;;;;;5010657;28;87312;-84
2022/11/05 04:36:13;;;;;;;3.00;2.60;;;20.10;64.40;;;;;;4978888;28;87277;-83
2022/11/05 04:38:39;;;;;;;2.50;2.30;;;20.10;64.30;;;;;;4979551;28;88870;-86
2022/11/05 04:41:15;;;;;;;4.72;2.50;;;20.10;64.50;;;;;;4977789;28;87254;-86
2022/11/05 04:43:41;;;;;;;2.72;2.47;;;20.00;64.40;;;;;;4981141;28;87001;-84
2022/11/05 04:46:07;;;;;;;3.80;2.70;;;20.00;64.40;;;;;;4982867;28;86115;-85
2022/11/05 04:48:33;;;;;;;3.30;2.67;;;20.00;64.40;;;;;;4981305;28;87626;-84
2022/11/05 04:50:58;;;;;;;3.10;2.75;;;20.00;64.50;;;;;;4982211;28;87784;-86
2022/11/05 04:53:24;;;;;;;2.30;2.10;;;20.00;64.50;;;;;;4981294;28;87682;-85
2022/11/05 04:55:50;;;;;;;3.35;2.60;;;20.00;64.50;;;;;;4981784;28;87467;-85
2022/11/05 04:58:15;;;;;;;3.88;2.65;;;20.00;64.60;;;;;;4981211;28;87649;-85
2022/11/05 05:00:41;;;;;;;3.75;2.80;;;20.10;64.40;;;;;;4981461;28;87996;-85
2022/11/05 05:03:07;;;;;;;2.78;2.42;;;20.10;64.30;;;;;;4982348;28;86939;-86
2022/11/05 05:05:32;;;;;;;3.03;2.72;;;20.10;64.10;;;;;;5012551;28;90294;-86
2022/11/05 05:08:02;;;;;;;2.90;2.60;;;20.10;64.20;;;;;;4981516;28;88493;-85
2022/11/05 05:10:28;;;;;;;2.75;2.55;;;20.10;64.10;;;;;;4982102;28;87970;-85
2022/11/05 05:12:53;;;;;;;2.95;2.65;;;20.10;64.10;;;;;;4981973;28;87348;-85
2022/11/05 05:15:19;;;;;;;2.75;2.47;;;20.10;64.20;;;;;;4981612;28;87607;-84
2022/11/05 05:17:52;;;;;;;2.70;2.50;;;20.00;64.10;;;;;;4981049;28;89154;-84
2022/11/05 05:23:03;;;;;;;2.58;2.38;;;20.00;64.90;;;;;;4981474;28;86844;-85
2022/11/05 05:25:29;;;;;;;3.50;2.50;;;20.00;64.00;;;;;;4979890;28;88644;-85
2022/11/05 05:27:58;;;;;;;2.72;2.53;;;20.10;64.40;;;;;;4979543;28;91294;-85
2022/11/05 05:30:24;;;;;;;3.03;2.63;;;20.00;64.30;;;;;;4980642;28;88504;-86
2022/11/05 05:32:50;;;;;;;2.72;2.53;;;20.00;64.20;;;;;;4980609;28;86976;-85
2022/11/05 05:35:15;;;;;;;2.90;2.70;;;20.00;64.40;;;;;;4980644;28;87815;-85
2022/11/05 05:37:41;;;;;;;2.95;2.40;;;20.00;64.20;;;;;;4980356;28;87854;-85
2022/11/05 05:40:08;;;;;;;2.70;2.40;;;20.00;64.30;;;;;;4981075;28;88391;-85
2022/11/05 05:42:34;;;;;;;2.80;2.13;;;20.00;64.10;;;;;;4979986;28;88299;-85
2022/11/05 05:44:59;;;;;;;2.47;2.28;;;20.00;65.10;;;;;;4981292;28;87422;-84
2022/11/05 05:47:25;;;;;;;3.42;2.50;;;20.00;64.20;;;;;;4980396;28;88664;-85
2022/11/05 05:49:51;;;;;;;2.85;2.42;;;19.90;64.40;;;;;;4980090;28;87255;-85
2022/11/05 05:52:16;;;;;;;4.32;2.55;;;19.90;64.30;;;;;;4981243;28;86860;-85
2022/11/05 05:54:42;;;;;;;2.63;2.42;;;20.00;64.40;;;;;;4979533;28;87397;-85
2022/11/05 05:57:07;;;;;;;2.60;2.40;;;19.90;64.20;;;;;;4980897;28;89247;-85
2022/11/05 05:59:33;;;;;;;2.50;2.30;;;19.90;64.30;;;;;;4980604;28;88020;-85
2022/11/05 06:01:59;;;;;;;2.42;2.22;;;19.90;64.10;;;;;;4980131;28;86919;-85
2022/11/05 06:04:25;;;;;;;2.55;2.28;;;19.90;64.00;;;;;;4980460;28;87183;-85
2022/11/05 06:06:50;;;;;;;3.03;2.28;;;19.90;64.10;;;;;;4979352;28;89230;-85
2022/11/05 06:09:16;;;;;;;3.17;2.70;;;19.90;64.30;;;;;;4979642;28;90544;-85
2022/11/05 06:11:42;;;;;;;2.72;2.50;;;19.90;64.30;;;;;;4981421;28;87558;-85
2022/11/05 06:14:11;;;;;;;2.60;2.40;;;19.90;64.20;;;;;;4979989;28;87365;-85
2022/11/05 06:16:39;;;;;;;;;;;19.90;64.30;;;;;;4980224;28;88556;-85
2022/11/05 06:19:06;;;;;;;2.63;2.42;;;19.90;64.20;;;;;;4981540;28;87479;-85
2022/11/05 06:21:32;;;;;;;2.40;2.20;;;19.90;64.20;;;;;;4979620;28;87013;-85
2022/11/05 06:23:59;;;;;;;2.40;2.20;;;19.90;64.10;;;;;;4980892;28;87386;-85
2022/11/05 06:26:25;;;;;;;2.60;2.40;;;19.90;64.20;;;;;;4980721;28;88325;-85
2022/11/05 06:28:51;;;;;;;2.55;2.33;;;19.90;64.00;;;;;;4980186;28;87730;-85
2022/11/05 06:31:16;;;;;;;2.30;2.10;;;19.90;64.20;;;;;;4981145;28;87842;-86
2022/11/05 06:33:42;;;;;;;2.50;2.30;;;19.80;64.10;;;;;;4979817;28;87438;-85
2022/11/05 06:36:15;;;;;;;2.65;2.45;;;19.80;64.10;;;;;;4978809;28;91505;-86
2022/11/05 06:38:40;;;;;;;2.67;2.30;;;19.80;64.10;;;;;;5012005;28;95795;-86
2022/11/05 06:41:06;;;;;;;2.92;2.22;;;19.80;64.20;;;;;;4999344;28;86941;-85
2022/11/05 06:43:32;;;;;;;2.55;2.33;;;19.80;64.30;;;;;;4981521;28;87227;-85
2022/11/05 06:46:00;;;;;;;2.30;2.10;;;19.80;64.10;;;;;;4979201;28;88249;-85
2022/11/05 06:48:27;;;;;;;2.08;1.88;;;19.80;64.20;;;;;;4980787;28;87430;-86
2022/11/05 06:50:53;;;;;;;2.30;2.10;;;19.80;64.00;;;;;;4976114;28;87003;-86
2022/11/05 06:53:19;;;;;;;2.47;2.28;;;19.80;64.00;;;;;;4980454;28;86919;-86
2022/11/05 06:55:46;;;;;;;2.30;2.10;;;19.80;64.00;;;;;;4979645;28;88296;-86
2022/11/05 06:58:15;;;;;;;4.22;2.20;;;19.80;64.00;;;;;;4979497;28;88795;-85
2022/11/05 07:00:40;;;;;;;2.67;2.47;;;19.90;63.90;;;;;;4978667;28;87336;-85
2022/11/05 07:03:08;;;;;;;2.55;2.30;;;19.90;63.50;;;;;;4980396;28;87379;-85
2022/11/05 07:05:45;;;;;;;3.55;2.35;;;19.90;63.70;;;;;;4977589;28;91415;-86
2022/11/05 07:08:10;;;;;;;2.75;2.22;;;19.90;60.40;;;;;;4978089;28;88311;-84
2022/11/05 07:10:36;;;;;;;4.10;2.20;;;19.90;61.00;;;;;;4980589;28;87679;-84
2022/11/05 07:13:02;;;;;;;4.55;2.55;;;19.90;62.40;;;;;;4979640;28;86384;-85
2022/11/05 07:15:27;;;;;;;4.05;2.53;;;19.90;63.10;;;;;;4979971;28;88782;-85
2022/11/05 07:17:58;;;;;;;4.05;2.65;;;20.00;63.10;;;;;;5011861;28;90023;-85
2022/11/05 07:20:24;;;;;;;3.67;2.92;;;20.10;63.30;;;;;;4979820;28;88215;-85
2022/11/05 07:22:50;;;;;;;3.20;2.70;;;20.00;63.60;;;;;;4985440;28;87464;-87
2022/11/05 07:25:15;;;;;;;8.48;3.47;;;20.20;63.50;;;;;;4980885;28;88003;-85
2022/11/05 07:27:41;;;;;;;5.50;2.72;;;20.20;61.50;;;;;;4980458;28;88266;-88
2022/11/05 07:30:10;;;;;;;7.82;3.22;;;20.30;62.00;;;;;;4980969;28;87206;-87
2022/11/05 07:32:44;;;;;;;9.13;2.53;;;20.20;63.40;;;;;;5014863;28;88870;-87
2022/11/05 07:35:10;;;;;;;6.18;2.85;;;20.30;63.50;;;;;;4980362;28;88348;-89
2022/11/05 07:37:47;;;;;;;7.22;2.80;;;20.30;63.30;;;;;;4980288;28;88174;-89
2022/11/05 07:40:14;;;;;;;7.03;2.58;;;20.30;63.30;;;;;;4979736;28;87681;-88
2022/11/05 07:42:50;;;;;;;8.23;3.17;;;20.30;63.50;;;;;;4980617;28;87285;-87
2022/11/05 07:45:16;;;;;;;6.32;3.05;;;20.30;63.70;;;;;;4968183;28;89537;-88
2022/11/05 07:48:09;;;;;;;6.07;2.97;;;20.30;63.70;;;;;;4980657;28;89181;-87
2022/11/05 07:50:36;;;;;;;4.00;2.95;;;20.30;64.00;;;;;;4981611;28;87478;-87
2022/11/05 07:53:07;;;;;;;5.28;2.58;;;20.30;63.90;;;;;;4979058;28;87752;-86
2022/11/05 07:55:34;;;;;;;9.02;3.08;;;20.30;63.90;;;;;;4978764;28;86998;-85
2022/11/05 07:57:59;;;;;;;6.57;2.80;;;20.40;63.10;;;;;;4979106;28;88872;-86
2022/11/05 08:00:26;;;;;;;5.22;2.70;;;20.40;63.60;;;;;;4979316;28;86885;-86
2022/11/05 08:03:06;;;;;;;3.05;2.70;;;20.40;63.70;;;;;;4980268;28;87456;-85
2022/11/05 08:05:35;;;;;;;4.63;2.70;;;20.40;64.00;;;;;;4979159;28;86924;-86
2022/11/05 08:08:02;;;;;;;3.97;2.60;;;20.40;63.90;;;;;;4973032;28;88098;-86
2022/11/05 08:10:27;;;;;;;4.60;2.67;;;20.40;63.80;;;;;;4965804;28;87868;-89
2022/11/05 08:12:54;;;;;;;7.32;3.33;;;20.50;63.90;;;;;;4978205;28;87210;-88
2022/11/05 08:15:22;;;;;;;7.88;3.45;;;20.50;63.30;;;;;;4977443;28;91612;-87
2022/11/05 08:17:48;;;;;;;6.10;3.13;;;20.40;63.20;;;;;;4981413;28;87356;-88
2022/11/05 08:20:14;;;;;;;13.27;4.13;;;20.40;63.00;;;;;;4982703;28;86962;-86
2022/11/05 08:22:42;;;;;;;19.17;4.43;;;20.40;63.30;;;;;;4982012;28;87028;-85
2022/11/05 08:25:08;;;;;;;14.95;3.78;;;20.50;63.20;;;;;;4980833;28;88527;-86
2022/11/05 08:27:33;;;;;;;16.45;4.60;;;20.60;63.50;;;;;;4977401;28;88203;-85
2022/11/05 08:29:59;;;;;;;12.98;4.57;;;20.60;63.50;;;;;;5009422;28;86954;-84
2022/11/05 08:32:24;;;;;;;18.90;5.75;;;20.60;63.20;;;;;;4981510;28;88503;-85
2022/11/05 08:34:50;;;;;;;15.68;4.85;;;20.60;63.60;;;;;;4932798;28;89729;-85
2022/11/05 08:37:16;;;;;;;17.65;5.13;;;20.60;63.60;;;;;;4981649;28;89257;-83
2022/11/05 08:39:41;;;;;;;18.75;6.00;;;20.60;63.80;;;;;;4981708;28;87291;-85
2022/11/05 08:42:07;;;;;;;24.92;5.75;;;20.60;63.90;;;;;;4983000;28;86833;-85
2022/11/05 08:44:32;;;;;;;26.42;6.45;;;20.60;64.00;;;;;;4980646;28;88957;-84
2022/11/05 08:46:58;;;;;;;25.98;6.55;;;20.60;63.90;;;;;;4982542;28;87966;-83
2022/11/05 08:49:24;;;;;;;27.00;6.05;;;20.70;64.00;;;;;;4982057;28;86833;-84
2022/11/05 08:51:49;;;;;;;27.35;6.93;;;20.80;65.40;;;;;;4981673;28;86616;-84
2022/11/05 08:54:15;;;;;;;24.92;6.28;;;20.90;66.00;;;;;;4997592;28;91362;-86
2022/11/05 08:56:40;;;;;;;26.80;6.55;;;20.80;66.20;;;;;;4980821;28;88234;-83
2022/11/05 08:59:06;;;;;;;37.47;9.85;;;20.90;70.00;;;;;;4984878;28;87925;-84
2022/11/05 09:01:32;;;;;;;31.20;8.18;;;21.00;67.30;;;;;;4980326;28;89353;-83
2022/11/05 09:03:58;;;;;;;28.42;9.13;;;20.90;66.00;;;;;;4977199;28;90043;-85
2022/11/05 09:06:24;;;;;;;30.02;8.45;;;20.90;66.50;;;;;;4979752;28;87336;-84
2022/11/05 09:08:49;;;;;;;33.30;8.57;;;20.90;65.70;;;;;;4980553;28;87307;-83
2022/11/05 09:11:17;;;;;;;33.42;8.13;;;21.00;66.00;;;;;;4980350;28;87412;-84
2022/11/05 09:13:43;;;;;;;35.50;9.60;;;20.90;66.70;;;;;;4979363;28;88045;-84
2022/11/05 09:16:27;;;;;;;41.85;10.32;;;21.00;66.40;;;;;;5011204;28;89787;-82
2022/11/05 09:18:53;;;;;;;31.58;9.35;;;21.10;65.80;;;;;;4976246;28;87715;-82
2022/11/05 09:21:18;;;;;;;28.20;9.07;;;21.10;65.80;;;;;;4978257;28;87009;-82
2022/11/05 09:23:45;;;;;;;30.58;9.85;;;21.20;65.20;;;;;;4978909;28;88721;-82
2022/11/05 09:26:12;;;;;;;35.13;8.93;;;21.10;65.20;;;;;;4969001;28;90236;-82
2022/11/05 09:28:38;;;;;;;28.65;9.60;;;21.10;65.70;;;;;;4978638;28;87216;-82
2022/11/05 09:31:08;;;;;;;30.27;9.48;;;21.00;66.20;;;;;;4978125;28;87868;-82
2022/11/05 09:33:36;;;;;;;25.63;8.98;;;20.90;66.30;;;;;;4975532;28;88508;-82
2022/11/05 09:36:02;;;;;;;32.25;9.57;;;20.90;66.70;;;;;;4978201;28;88489;-83
2022/11/05 09:38:29;;;;;;;25.88;9.65;;;20.90;66.80;;;;;;4978619;28;87211;-83
2022/11/05 09:41:07;;;;;;;32.15;10.43;;;20.90;66.40;;;;;;4978431;28;87444;-84
2022/11/05 09:43:37;;;;;;;32.53;9.77;;;20.90;65.10;;;;;;4977344;28;87732;-82
2022/11/05 09:46:23;;;;;;;36.80;9.43;;;20.90;65.60;;;;;;4977233;28;87912;-83
2022/11/05 09:48:54;;;;;;;30.48;9.20;;;20.80;65.80;;;;;;4978527;28;88127;-83
2022/11/05 09:51:20;;;;;;;31.65;9.70;;;21.00;71.50;;;;;;4978976;28;88709;-83
2022/11/05 09:53:46;;;;;;;33.22;10.45;;;20.90;73.00;;;;;;4979762;28;88410;-83
2022/11/05 09:56:30;;;;;;;32.00;8.85;;;20.90;74.70;;;;;;4978028;28;87701;-83
2022/11/05 09:58:59;;;;;;;30.88;10.65;;;20.90;72.80;;;;;;4974518;28;87930;-83
2022/11/05 10:01:29;;;;;;;34.95;10.48;;;20.90;70.20;;;;;;5010515;28;89191;-83
2022/11/05 10:03:58;;;;;;;27.50;9.52;;;20.80;69.70;;;;;;4975569;28;88649;-85
2022/11/05 10:06:26;;;;;;;28.13;9.48;;;20.80;69.20;;;;;;4977695;28;88366;-83
2022/11/05 10:09:16;;;;;;;28.58;9.80;;;20.80;69.70;;;;;;4978331;28;87417;-82
2022/11/05 10:11:50;;;;;;;28.25;10.00;;;20.80;69.40;;;;;;4978096;28;91460;-83
2022/11/05 10:14:22;;;;;;;32.78;9.90;;;20.80;69.50;;;;;;4973790;28;89838;-82
2022/11/05 10:16:55;;;;;;;33.50;9.55;;;20.80;69.40;;;;;;4976930;28;88941;-81
2022/11/05 10:19:29;;;;;;;27.40;9.23;;;20.70;68.40;;;;;;4976547;28;87361;-81
2022/11/05 10:22:01;;;;;;;26.58;9.23;;;20.70;67.30;;;;;;4977849;28;87443;-83
2022/11/05 10:24:27;;;;;;;22.30;7.40;;;20.70;67.20;;;;;;5009697;28;91514;-82
2022/11/05 10:26:53;;;;;;;21.83;8.35;;;20.70;63.60;;;;;;4978009;28;88062;-82
2022/11/05 10:29:28;;;;;;;24.95;8.32;;;20.70;64.30;;;;;;4977426;28;86821;-83
2022/11/05 10:31:58;;;;;;;22.63;8.00;;;20.70;65.60;;;;;;4975729;28;87306;-82
2022/11/05 10:34:30;;;;;;;25.50;9.38;;;20.70;65.90;;;;;;4976178;28;88235;-83
2022/11/05 10:36:56;;;;;;;28.50;8.80;;;20.70;64.50;;;;;;4976801;28;89600;-81
2022/11/05 10:39:24;;;;;;;31.00;9.70;;;20.70;63.90;;;;;;4976933;28;88355;-83
2022/11/05 10:42:14;;;;;;;38.55;12.27;;;20.70;64.10;;;;;;4977775;28;87350;-83
2022/11/05 10:44:52;;;;;;;47.45;13.75;;;20.60;63.20;;;;;;4976508;28;93051;-83
2022/11/05 10:47:26;;;;;;;40.97;13.07;;;20.70;62.40;;;;;;4976934;28;87228;-84
2022/11/05 10:49:59;;;;;;;37.15;13.50;;;20.70;62.40;;;;;;4976743;28;87036;-85
2022/11/05 10:52:38;;;;;;;40.95;10.38;;;20.70;60.90;;;;;;4976816;28;87232;-84
2022/11/05 10:55:22;;;;;;;40.43;13.23;;;20.70;61.50;;;;;;4976109;28;93862;-81
2022/11/05 10:57:48;;;;;;;39.40;11.77;;;20.70;61.90;;;;;;5006518;28;88255;-81
2022/11/05 11:00:14;;;;;;;36.15;12.05;;;20.70;62.90;;;;;;4977429;28;87364;-82
2022/11/05 11:02:59;;;;;;;41.72;12.25;;;20.70;63.50;;;;;;4977611;28;87730;-81
2022/11/05 11:05:34;;;;;;;35.35;12.05;;;20.60;64.00;;;;;;4973124;28;89804;-83
2022/11/05 11:08:12;;;;;;;34.88;10.57;;;20.60;64.30;;;;;;4976614;28;89156;-81
2022/11/05 11:11:08;;;;;;;43.13;11.40;;;20.60;64.70;;;;;;4975003;28;86958;-80
2022/11/05 11:13:49;;;;;;;32.85;10.93;;;20.60;65.00;;;;;;4975650;28;87603;-80
2022/11/05 11:16:23;;;;;;;35.97;12.50;;;20.60;65.70;;;;;;4974496;28;88201;-82
2022/11/05 11:18:53;;;;;;;32.97;10.82;;;20.70;65.80;;;;;;4975573;28;88508;-81
2022/11/05 11:21:22;;;;;;;32.85;10.63;;;20.70;65.50;;;;;;4975915;28;87364;-81
2022/11/05 11:24:05;;;;;;;30.60;10.10;;;20.70;65.70;;;;;;4976254;28;87141;-80
2022/11/05 11:26:35;;;;;;;29.15;11.32;;;20.70;65.70;;;;;;4973348;28;88512;-81
2022/11/05 11:29:05;;;;;;;;;;;20.70;65.60;;;;;;4975509;28;87903;-81
2022/11/05 11:31:36;;;;;;;27.45;9.85;;;20.70;65.50;;;;;;4976862;28;88050;-81
2022/11/05 11:34:15;;;;;;;33.50;10.75;;;20.70;65.20;;;;;;4976088;28;87452;-80
2022/11/05 11:36:46;;;;;;;30.67;9.55;;;20.70;65.50;;;;;;4974304;28;88378;-81
2022/11/05 11:39:19;;;;;;;28.58;10.85;;;20.80;65.30;;;;;;4977162;28;88243;-82
2022/11/05 11:41:48;;;;;;;29.55;9.95;;;20.80;65.50;;;;;;4975019;28;86992;-82
2022/11/05 11:44:19;;;;;;;25.23;8.43;;;20.80;64.00;;;;;;4976945;28;87220;-82
2022/11/05 11:46:49;;;;;;;22.13;7.57;;;20.90;62.20;;;;;;5008499;28;90395;-82
2022/11/05 11:49:44;;;;;;;21.05;7.53;;;20.90;59.80;;;;;;4977634;28;88393;-82
2022/11/05 11:52:26;;;;;;;19.67;6.75;;;20.90;59.20;;;;;;4974863;28;86951;-83
2022/11/05 11:54:52;;;;;;;24.75;8.82;;;20.90;58.80;;;;;;4976191;28;87317;-82
2022/11/05 11:57:28;;;;;;;19.60;7.93;;;20.90;61.80;;;;;;4976730;28;89012;-82
2022/11/05 11:59:57;;;;;;;25.77;8.80;;;20.90;62.60;;;;;;4989454;28;89272;-81
2022/11/05 12:02:48;;;;;;;18.23;8.02;;;20.80;62.90;;;;;;4976569;28;86843;-83
2022/11/05 12:05:29;;;;;;;23.25;8.48;;;20.80;62.30;;;;;;5006325;28;96256;-83
2022/11/05 12:08:03;;;;;;;18.88;7.63;;;20.80;62.70;;;;;;4975110;28;88197;-82
2022/11/05 12:10:55;;;;;;;32.25;7.72;;;20.90;63.00;;;;;;4976252;28;92244;-82
2022/11/05 12:13:27;;;;;;;21.48;7.53;;;20.90;63.20;;;;;;5007646;28;86892;-83
2022/11/05 12:16:14;;;;;;;22.15;7.40;;;20.80;63.30;;;;;;4976340;28;86448;-83
2022/11/05 12:19:10;;;;;;;22.35;7.13;;;20.70;63.50;;;;;;4975535;28;88262;-83
2022/11/05 12:21:44;;;;;;;17.52;7.07;;;20.70;63.80;;;;;;4971954;28;87801;-84
2022/11/05 12:24:34;;;;;;;23.33;6.97;;;20.70;63.80;;;;;;4974773;28;87810;-83
2022/11/05 12:27:29;;;;;;;24.13;7.43;;;20.70;64.00;;;;;;4975909;28;92086;-83
2022/11/05 12:30:04;;;;;;;23.67;7.60;;;20.70;64.40;;;;;;4975282;28;93229;-83
2022/11/05 12:32:53;;;;;;;21.63;7.45;;;20.70;64.60;;;;;;4976705;28;87967;-83
2022/11/05 12:35:38;;;;;;;20.05;7.57;;;20.70;64.60;;;;;;4976035;28;86941;-84
2022/11/05 12:38:26;;;;;;;22.52;7.50;;;20.70;64.70;;;;;;4976023;28;87427;-86
2022/11/05 12:41:09;;;;;;;16.33;6.93;;;20.70;64.90;;;;;;4974745;28;88573;-82
2022/11/05 12:44:01;;;;;;;16.42;6.57;;;20.70;64.70;;;;;;4975740;28;88554;-84
2022/11/05 12:46:40;;;;;;;16.48;6.68;;;20.70;64.70;;;;;;4972949;28;87155;-83
2022/11/05 12:49:21;;;;;;;18.15;7.38;;;20.70;64.80;;;;;;4972537;28;89305;-84
2022/11/05 12:51:52;;;;;;;18.65;6.50;;;20.70;65.00;;;;;;4973132;28;88930;-83
2022/11/05 12:54:28;;;;;;;20.25;6.43;;;20.70;65.10;;;;;;4973178;28;87439;-83
2022/11/05 12:57:00;;;;;;;17.55;6.65;;;20.60;64.80;;;;;;4972963;28;87070;-83
2022/11/05 12:59:44;;;;;;;19.50;7.15;;;20.70;65.00;;;;;;4972690;28;87000;-82
2022/11/05 13:02:13;;;;;;;17.40;7.25;;;20.70;65.10;;;;;;4972424;28;88151;-82
2022/11/05 13:04:48;;;;;;;20.03;6.63;;;20.60;65.20;;;;;;4974774;28;95397;-82
2022/11/05 13:07:20;;;;;;;17.25;6.40;;;20.70;65.30;;;;;;4977056;28;87332;-82
2022/11/05 13:09:56;;;;;;;21.92;7.25;;;20.70;65.20;;;;;;4975163;28;86282;-82
2022/11/05 13:12:26;;;;;;;24.25;7.35;;;20.80;65.10;;;;;;4974687;28;89704;-82
2022/11/05 13:15:09;;;;;;;17.70;6.50;;;20.80;65.20;;;;;;4976582;28;88035;-84
2022/11/05 13:17:41;;;;;;;15.23;6.47;;;20.80;64.40;;;;;;4975793;28;88050;-82
2022/11/05 13:20:18;;;;;;;18.48;7.00;;;20.90;63.90;;;;;;4975950;28;87493;-82
2022/11/05 13:23:16;;;;;;;16.77;6.60;;;20.90;64.80;;;;;;4975917;28;90153;-82
2022/11/05 13:25:48;;;;;;;14.30;6.27;;;20.80;64.60;;;;;;4978130;28;89784;-82
2022/11/05 13:28:30;;;;;;;14.68;6.40;;;20.90;64.60;;;;;;4978542;28;87033;-82
2022/11/05 13:31:00;;;;;;;17.73;6.43;;;20.90;64.70;;;;;;4976971;28;87420;-82
2022/11/05 13:33:35;;;;;;;16.40;5.95;;;20.80;64.80;;;;;;4978088;28;88650;-82
2022/11/05 13:39:05;;;;;;;19.27;6.38;;;20.80;65.10;;;;;;4977234;28;86961;-82
2022/11/05 13:41:43;;;;;;;12.93;6.28;;;20.90;65.20;;;;;;4978760;28;87252;-83
2022/11/05 13:44:14;;;;;;;13.88;5.47;;;20.90;65.20;;;;;;4977307;28;89164;-82
2022/11/05 13:46:50;;;;;;;17.05;6.30;;;21.00;65.00;;;;;;4978263;28;88786;-82
2022/11/05 13:49:42;;;;;;;13.75;5.22;;;21.00;64.80;;;;;;5010013;28;87233;-82
2022/11/05 13:52:23;;;;;;;15.00;6.20;;;20.90;65.00;;;;;;4977386;28;87381;-81